Date,TemperatureHighF,TemperatureAvgF,TemperatureLowF,DewpointHighF,DewpointAvgF,DewpointLowF,HumidityHigh,HumidityAvg,HumidityLow,PressureMaxIn,PressureMinIn,WindSpeedMaxMPH,WindSpeedAvgMPH,GustSpeedMaxMPH,PrecipitationSumIn
2013-3-1,41.2,35.6,32.0,38.5,34.4,31.8,100,96,84,29.77,29.62,14,4,17,0.00
2013-3-2,49.3,36.8,29.3,38.8,34.1,29.1,100,91,63,29.75,29.68,11,4,14,0.00
2013-3-3,42.8,35.5,30.7,42.5,34.9,30.5,100,98,89,29.72,29.63,12,4,15,0.06
2013-3-4,37.8,32.9,29.1,32.6,29.3,26.9,96,87,76,29.80,29.62,22,12,25,0.00
2013-3-5,47.8,37.4,30.2,41.9,34.6,27.4,100,90,71,30.18,29.80,14,6,15,0.00
2013-3-6,38.5,35.2,25.7,38.0,34.9,25.5,100,99,92,30.28,30.17,30,15,33,0.13
2013-3-7,34.2,32.2,29.7,33.2,31.8,29.4,100,98,92,30.25,30.12,27,12,30,0.01
2013-3-8,45.9,36.2,27.9,32.6,28.5,25.5,100,77,50,30.26,30.07,24,12,30,0.01
2013-3-9,45.9,37.0,26.6,38.1,30.2,25.0,100,78,54,30.47,30.26,18,7,22,0.00
2013-3-10,44.8,34.8,25.5,39.4,33.5,25.3,100,95,79,30.52,30.41,11,4,12,0.00
2013-3-11,55.6,41.5,33.1,45.7,39.6,32.8,99,94,67,30.43,30.25,11,4,12,0.00
2013-3-12,48.0,44.4,38.3,47.8,44.1,38.0,99,99,99,30.27,29.82,18,7,23,0.26
2013-3-13,53.8,43.1,29.5,47.5,39.1,29.2,100,88,59,29.87,29.77,17,5,17,0.01
2013-3-14,38.5,30.4,20.3,31.1,24.0,9.5,100,78,58,29.88,29.74,28,8,29,0.00
2013-3-15,43.2,28.4,16.9,32.7,16.1,6.3,100,63,36,29.92,29.70,23,9,23,0.00
2013-3-16,39.4,31.1,23.0,30.7,21.7,13.9,100,71,43,29.97,29.73,14,5,21,0.00
2013-3-17,34.2,27.5,20.7,19.8,11.8,1.4,86,55,34,30.42,29.98,27,8,28,0.00
2013-3-18,41.5,26.8,11.3,30.4,15.5,1.1,91,65,37,30.55,30.36,12,4,14,0.00
2013-3-19,32.7,30.4,23.7,32.5,30.1,23.5,100,99,92,30.37,29.75,23,9,24,0.06
2013-3-20,39.9,29.3,22.6,34.1,27.3,22.4,100,93,72,29.87,29.76,23,5,23,0.11
2013-3-21,47.3,31.1,18.9,31.5,26.2,18.6,100,84,47,29.88,29.69,11,3,11,0.00
2013-3-22,44.2,33.5,27.3,31.1,26.4,22.4,100,77,51,29.78,29.67,17,5,19,0.00
2013-3-23,43.2,34.6,26.1,30.4,26.1,23.0,95,72,50,29.81,29.67,27,12,34,0.00
2013-3-24,49.5,37.5,27.0,35.6,30.6,26.7,100,77,55,29.89,29.80,17,6,21,0.00
2013-3-25,43.2,37.3,27.1,40.7,35.2,26.9,100,92,83,29.87,29.33,20,8,21,0.00
2013-3-26,53.4,42.3,32.5,33.4,29.0,25.0,93,63,39,29.85,29.65,15,6,21,0.00
2013-3-27,57.2,41.7,28.9,40.4,33.1,26.9,100,74,46,29.97,29.81,16,6,17,0.00
2013-3-28,52.2,42.1,34.7,44.9,37.5,33.6,100,85,56,30.09,29.96,9,4,12,0.04
2013-3-29,59.4,45.8,34.9,45.4,38.7,34.6,100,79,50,30.13,30.05,15,5,21,0.00
2013-3-30,57.2,44.9,30.2,41.8,36.1,23.7,100,74,42,30.19,30.10,14,4,15,0.00
2013-3-31,53.2,42.6,24.8,44.9,34.6,24.6,100,77,40,30.22,29.91,18,5,21,0.00